Time;durP1;ratioP1;P1;durP2;ratioP2;P2;SDS_P1;SDS_P2;PMS_P1;PMS_P2;Temp;Humidity;BMP_temperature;BMP_pressure;BME280_temperature;BME280_humidity;BME280_pressure;Samples;Min_cycle;Max_cycle;Signal;HPM_P1;HPM_P2
2022/01/24 00:01:29;;;;;;;8.90;6.20;;;;;;;3.95;56.08;100705.50;5005728;28;20305;-66
2022/01/24 00:03:58;;;;;;;8.83;6.43;;;;;;;4.28;54.96;100686.47;5002072;28;20906;-66
2022/01/24 00:06:25;;;;;;;8.67;6.63;;;;;;;4.41;54.81;100669.75;5003793;28;20228;-67
2022/01/24 00:08:52;;;;;;;6.67;5.73;;;;;;;4.50;54.34;100663.78;5004168;28;20241;-66
2022/01/24 00:11:24;;;;;;;9.80;6.57;;;;;;;4.90;53.86;100660.91;5007923;28;20242;-66
2022/01/24 00:16:35;;;;;;;8.73;6.37;;;;;;;4.54;54.76;100674.03;5010632;28;20232;-65
2022/01/24 00:27:01;;;;;;;11.97;7.07;;;;;;;4.93;53.62;100641.38;5007282;28;20243;-66
2022/01/24 00:29:28;;;;;;;11.37;7.40;;;;;;;4.53;54.99;100668.88;5006103;28;20236;-65
2022/01/24 00:31:56;;;;;;;8.17;6.60;;;;;;;4.67;54.64;100658.16;5008064;28;20590;-66
2022/01/24 00:34:23;;;;;;;11.30;7.43;;;;;;;4.71;54.39;100649.03;5007680;28;20889;-66
2022/01/24 00:36:52;;;;;;;11.00;7.30;;;;;;;4.84;53.74;100622.56;5004710;28;20231;-65
2022/01/24 00:39:20;;;;;;;8.00;6.20;;;;;;;4.55;54.69;100659.03;5007024;28;20270;-66
2022/01/24 00:47:02;;;;;;;8.93;6.97;;;;;;;5.09;53.32;100636.63;5005494;28;20228;-65
2022/01/24 00:54:52;;;;;;;7.57;6.27;;;;;;;4.93;53.87;100644.03;5006517;28;20225;-65
2022/01/24 00:57:20;;;;;;;8.20;6.10;;;;;;;4.63;54.11;100638.19;5005882;28;20221;-66
2022/01/24 00:59:48;;;;;;;7.63;5.90;;;;;;;4.14;55.55;100661.03;5004186;28;20239;-66
2022/01/24 01:02:16;;;;;;;8.87;6.07;;;;;;;4.02;55.89;100658.41;5007204;28;20721;-66
2022/01/24 01:18:25;;;;;;;7.43;6.23;;;;;;;4.26;55.05;100646.09;5009074;28;20230;-66
2022/01/24 01:23:19;;;;;;;12.30;7.23;;;;;;;3.67;56.82;100661.69;5008035;28;20233;-66
2022/01/24 01:25:47;;;;;;;9.03;6.87;;;;;;;3.43;56.87;100646.56;5011169;28;20235;-66
2022/01/24 01:28:15;;;;;;;9.37;7.17;;;;;;;3.29;57.77;100671.22;5017964;28;20239;-66
2022/01/24 01:30:46;;;;;;;9.73;7.17;;;;;;;3.59;57.20;100681.53;5016983;28;20232;-65
2022/01/24 01:57:19;;;;;;;9.60;7.33;;;;;;;3.75;57.02;100656.72;5009168;28;20664;-65
2022/01/24 01:59:46;;;;;;;10.70;7.27;;;;;;;3.83;57.34;100675.53;5001298;28;20246;-66
2022/01/24 02:02:14;;;;;;;12.63;7.23;;;;;;;3.89;57.09;100671.59;5006672;28;20237;-66
2022/01/24 02:04:41;;;;;;;10.43;7.53;;;;;;;3.09;59.47;100669.06;5026996;28;20221;-65
2022/01/24 02:07:13;;;;;;;9.70;7.53;;;;;;;3.31;58.77;100669.31;5027807;28;20230;-66
2022/01/24 02:09:42;;;;;;;9.87;7.00;;;;;;;3.36;58.51;100672.50;5027965;28;20708;-66
2022/01/24 02:12:11;;;;;;;12.90;8.40;;;;;;;3.77;57.68;100670.66;5011648;28;20626;-66
2022/01/24 02:14:45;;;;;;;9.93;7.63;;;;;;;4.02;57.37;100668.97;5007806;28;20223;-66
2022/01/24 02:17:18;;;;;;;10.70;7.77;;;;;;;3.59;57.40;100641.94;5007101;28;20763;-65
2022/01/24 02:20:10;;;;;;;10.60;7.83;;;;;;;3.00;58.85;100650.25;5008143;28;20232;-66
2022/01/24 02:22:43;;;;;;;10.67;7.37;;;;;;;3.26;59.50;100692.50;5008031;28;20242;-65
2022/01/24 02:25:23;;;;;;;10.73;7.97;;;;;;;3.61;57.45;100645.31;4996089;28;20638;-66
2022/01/24 02:27:56;;;;;;;10.50;8.43;;;;;;;4.38;56.52;100640.91;5007954;28;20236;-65
2022/01/24 02:30:40;;;;;;;11.73;9.13;;;;;;;3.41;58.07;100628.22;5007634;28;20704;-66
2022/01/24 02:33:08;;;;;;;10.33;7.87;;;;;;;4.07;56.91;100646.56;5006570;28;21778;-66
2022/01/24 02:35:36;;;;;;;8.93;7.40;;;;;;;3.55;57.92;100642.25;5007582;28;20230;-66
2022/01/24 02:38:09;;;;;;;12.23;9.07;;;;;;;4.23;56.25;100622.56;5007711;28;20236;-66
2022/01/24 02:40:36;;;;;;;12.10;8.30;;;;;;;4.41;56.25;100641.53;5007765;28;20235;-66
2022/01/24 02:48:51;;;;;;;13.00;8.60;;;;;;;2.64;59.02;100603.41;5001684;28;20718;-66
2022/01/24 02:53:49;;;;;;;11.97;8.17;;;;;;;3.28;59.63;100677.41;5007109;28;20233;-66
2022/01/24 02:56:16;;;;;;;11.77;8.07;;;;;;;4.10;57.02;100643.72;5006452;28;20241;-66
2022/01/24 02:58:43;;;;;;;8.90;7.57;;;;;;;4.38;56.36;100625.06;5006825;28;20238;-66
2022/01/24 03:01:10;;;;;;;11.50;7.73;;;;;;;4.06;56.65;100618.47;5006510;28;20590;-66
2022/01/24 03:03:38;;;;;;;9.77;7.53;;;;;;;3.13;58.39;100615.16;5006820;28;20240;-66
2022/01/24 03:06:05;;;;;;;10.00;7.40;;;;;;;3.10;59.54;100633.81;5007646;28;20232;-66
2022/01/24 03:08:33;;;;;;;9.17;7.50;;;;;;;3.41;58.54;100644.03;5005810;28;20241;-66
2022/01/24 03:11:00;;;;;;;10.07;7.07;;;;;;;3.40;57.90;100623.88;5007415;28;20259;-66
2022/01/24 03:15:56;;;;;;;9.23;7.43;;;;;;;3.83;56.84;100630.66;5007065;28;20241;-66
2022/01/24 03:18:23;;;;;;;9.77;7.53;;;;;;;3.48;57.82;100620.72;5007302;28;20253;-66
2022/01/24 03:20:50;;;;;;;10.43;7.77;;;;;;;3.53;57.83;100628.34;5006748;28;20257;-65
2022/01/24 03:23:20;;;;;;;11.57;7.87;;;;;;;3.34;58.23;100642.75;5005766;28;20234;-67
2022/01/24 03:25:48;;;;;;;10.80;7.87;;;;;;;3.48;57.69;100633.09;5007015;28;20242;-66
2022/01/24 03:28:15;;;;;;;9.70;8.20;;;;;;;2.85;59.57;100630.19;5006919;28;20239;-66
2022/01/24 03:30:42;;;;;;;10.37;8.27;;;;;;;3.09;58.58;100640.88;5006915;28;20596;-66
2022/01/24 03:33:10;;;;;;;11.00;8.07;;;;;;;3.04;58.73;100632.44;5006684;28;20226;-66
2022/01/24 03:35:40;;;;;;;11.77;7.80;;;;;;;2.95;58.83;100631.25;5007439;28;20229;-66
2022/01/24 03:38:07;;;;;;;10.63;8.30;;;;;;;2.87;59.17;100633.56;5003069;28;20219;-66
2022/01/24 03:40:34;;;;;;;9.97;8.00;;;;;;;3.37;57.88;100626.75;5017464;28;21030;-66
2022/01/24 03:43:01;;;;;;;10.33;7.73;;;;;;;2.49;59.58;100599.97;5025620;28;20233;-66
2022/01/24 03:45:41;;;;;;;10.20;7.67;;;;;;;2.99;58.95;100632.72;5018379;28;20222;-66
2022/01/24 03:48:27;;;;;;;10.40;8.10;;;;;;;2.73;59.28;100616.00;5023699;28;20230;-66
2022/01/24 03:50:54;;;;;;;10.60;8.20;;;;;;;2.22;60.97;100619.22;5017433;28;20242;-65
2022/01/24 03:53:21;;;;;;;11.33;7.83;;;;;;;2.84;60.06;100654.81;5010376;28;20241;-66
2022/01/24 03:55:48;;;;;;;10.00;8.17;;;;;;;3.12;58.46;100631.91;5014555;28;20225;-66
2022/01/24 03:58:16;;;;;;;10.33;7.97;;;;;;;2.40;60.25;100635.66;5022202;28;20225;-66
2022/01/24 04:00:43;;;;;;;11.43;7.93;;;;;;;2.78;59.11;100629.72;5029905;28;20230;-66
2022/01/24 04:03:11;;;;;;;10.73;8.30;;;;;;;3.02;58.97;100637.81;5030094;28;20232;-66
2022/01/24 04:05:38;;;;;;;9.40;7.53;;;;;;;2.72;59.96;100637.19;5029982;28;20238;-66
2022/01/24 04:08:05;;;;;;;10.70;7.80;;;;;;;2.89;59.27;100634.28;5029344;28;20239;-66
2022/01/24 04:10:41;;;;;;;12.93;8.00;;;;;;;2.49;60.03;100608.75;5010583;28;20229;-66
2022/01/24 04:13:22;;;;;;;9.93;7.60;;;;;;;2.69;59.66;100625.88;5008890;28;20294;-66
2022/01/24 04:18:47;;;;;;;11.37;8.60;;;;;;;2.65;60.21;100640.22;5013495;28;20783;-66
2022/01/24 04:21:30;;;;;;;11.43;8.47;;;;;;;2.91;58.95;100645.56;5015069;28;20678;-66
2022/01/24 04:24:09;;;;;;;12.07;8.13;;;;;;;1.98;60.59;100589.19;5009477;28;20222;-66
2022/01/24 04:26:38;;;;;;;11.73;8.30;;;;;;;2.53;60.17;100641.00;5008622;28;20955;-65
2022/01/24 04:29:07;;;;;;;10.50;7.80;;;;;;;2.40;60.22;100632.19;5004242;28;20234;-65
2022/01/24 04:31:34;;;;;;;10.73;8.30;;;;;;;2.65;59.77;100636.75;5010616;28;20227;-65
2022/01/24 04:34:02;;;;;;;9.70;8.00;;;;;;;2.34;60.85;100630.78;5008789;28;20230;-65
2022/01/24 04:36:29;;;;;;;8.97;7.70;;;;;;;2.73;58.82;100618.66;5011567;28;20230;-71
2022/01/24 04:38:56;;;;;;;8.80;7.17;;;;;;;2.42;60.46;100628.50;5010943;28;20250;-66
2022/01/24 04:41:31;;;;;;;10.80;7.77;;;;;;;2.93;59.53;100642.84;5012818;28;20240;-65
2022/01/24 04:44:11;;;;;;;9.73;7.70;;;;;;;2.59;60.21;100640.59;5007205;28;20222;-64
2022/01/24 04:46:58;;;;;;;10.47;7.60;;;;;;;2.63;60.04;100634.19;5013086;28;20226;-65
2022/01/24 04:54:44;;;;;;;9.37;7.37;;;;;;;2.80;59.24;100653.34;5012706;28;20238;-64
2022/01/24 04:57:14;;;;;;;11.80;7.97;;;;;;;2.43;59.54;100629.38;5016847;28;20234;-64
2022/01/24 04:59:43;;;;;;;10.80;8.77;;;;;;;2.42;59.62;100625.03;5006616;28;20232;-64
2022/01/24 05:02:10;;;;;;;8.53;7.57;;;;;;;2.40;59.79;100635.66;5017605;28;20264;-64
2022/01/24 05:04:37;;;;;;;10.03;8.23;;;;;;;1.83;61.53;100619.94;5006907;28;20246;-64
2022/01/24 05:07:04;;;;;;;11.80;8.37;;;;;;;2.27;60.22;100640.84;5008814;28;20228;-64
2022/01/24 05:09:38;;;;;;;10.23;7.80;;;;;;;2.07;60.33;100625.44;5008235;28;20593;-64
2022/01/24 05:12:36;;;;;;;12.10;8.60;;;;;;;1.84;61.32;100624.25;5009822;28;20239;-64
2022/01/24 05:23:30;;;;;;;10.20;8.37;;;;;;;2.20;61.03;100665.03;5010479;28;20877;-64
2022/01/24 05:25:59;;;;;;;12.40;8.10;;;;;;;1.80;61.71;100652.50;5008908;28;20225;-64
2022/01/24 05:28:27;;;;;;;12.47;8.57;;;;;;;1.71;61.61;100635.50;5008306;28;20229;-64
2022/01/24 05:30:54;;;;;;;11.23;8.27;;;;;;;1.76;62.03;100651.03;5008586;28;20235;-64
2022/01/24 05:33:22;;;;;;;10.00;8.50;;;;;;;1.59;61.76;100628.38;5007838;28;20237;-64
2022/01/24 05:35:49;;;;;;;12.23;8.80;;;;;;;2.13;60.46;100651.41;5009114;28;20238;-64
2022/01/24 05:38:16;;;;;;;10.63;7.73;;;;;;;2.45;60.00;100653.81;5007968;28;20235;-64
2022/01/24 05:40:45;;;;;;;10.50;7.33;;;;;;;2.39;59.55;100655.03;5014196;28;20237;-64
2022/01/24 05:43:12;;;;;;;9.07;7.33;;;;;;;2.23;60.45;100655.16;5011245;28;20232;-64
2022/01/24 05:45:39;;;;;;;10.83;7.93;;;;;;;2.04;60.69;100644.94;5008416;28;20229;-63
2022/01/24 05:48:06;;;;;;;10.13;7.90;;;;;;;2.15;60.43;100652.16;5008401;28;20225;-64
2022/01/24 05:50:33;;;;;;;9.23;7.87;;;;;;;2.24;59.88;100651.59;5008344;28;20236;-64
2022/01/24 05:53:00;;;;;;;9.43;7.57;;;;;;;2.16;60.51;100652.97;5008030;28;20617;-64
2022/01/24 05:55:27;;;;;;;11.70;9.53;;;;;;;2.12;60.44;100647.06;5007658;28;20236;-63
2022/01/24 05:57:54;;;;;;;9.40;7.37;;;;;;;1.98;61.13;100658.44;5008639;28;20229;-64
2022/01/24 06:00:22;;;;;;;10.20;7.70;;;;;;;1.86;61.19;100654.78;5010923;28;20235;-64
2022/01/24 06:02:50;;;;;;;13.00;8.10;;;;;;;2.03;60.87;100653.75;5012712;28;20646;-64
2022/01/24 06:05:17;;;;;;;10.73;7.80;;;;;;;1.71;61.95;100653.91;5008023;28;20229;-64
2022/01/24 06:07:44;;;;;;;11.97;8.37;;;;;;;1.87;61.13;100661.75;4999930;28;20233;-63
2022/01/24 06:10:11;;;;;;;11.70;8.20;;;;;;;1.90;60.83;100653.69;5006115;28;20233;-63
2022/01/24 06:12:38;;;;;;;10.03;8.07;;;;;;;2.15;60.48;100670.56;5007868;28;20225;-64
2022/01/24 06:15:09;;;;;;;9.07;7.17;;;;;;;2.12;60.52;100673.38;5005872;28;20748;-64
2022/01/24 06:17:36;;;;;;;10.23;8.50;;;;;;;1.87;61.13;100658.25;5007230;28;20231;-64
2022/01/24 06:20:05;;;;;;;8.50;7.27;;;;;;;1.97;60.70;100666.44;5007725;28;20635;-65
2022/01/24 06:22:32;;;;;;;8.87;7.23;;;;;;;2.03;60.15;100655.53;5007821;28;20244;-64
2022/01/24 06:24:58;;;;;;;11.17;8.30;;;;;;;1.78;60.76;100651.78;5007276;28;20229;-64
2022/01/24 06:27:41;;;;;;;9.03;7.80;;;;;;;1.65;60.78;100645.56;5008122;28;20224;-64
2022/01/24 06:30:09;;;;;;;11.53;8.23;;;;;;;1.57;61.72;100649.50;5014064;28;20232;-63
2022/01/24 06:32:38;;;;;;;13.43;7.77;;;;;;;1.51;61.57;100649.84;5013234;28;20229;-64
2022/01/24 06:35:06;;;;;;;11.77;8.20;;;;;;;1.90;61.19;100677.34;5000074;28;20225;-64
2022/01/24 06:37:33;;;;;;;10.30;8.00;;;;;;;1.47;61.93;100658.03;5014425;28;20230;-64
2022/01/24 06:40:00;;;;;;;9.20;7.43;;;;;;;1.53;61.84;100666.41;5020688;28;20242;-64
2022/01/24 06:42:27;;;;;;;10.90;7.80;;;;;;;1.52;61.88;100658.59;5026490;28;20235;-64
2022/01/24 06:44:56;;;;;;;10.73;7.80;;;;;;;1.62;61.72;100667.63;5026511;28;20221;-64
2022/01/24 06:47:24;;;;;;;11.10;8.77;;;;;;;1.78;61.56;100683.34;5007612;28;20229;-64
2022/01/24 06:49:51;;;;;;;12.37;8.70;;;;;;;1.27;62.74;100660.00;5005590;28;20740;-64
2022/01/24 06:52:20;;;;;;;10.77;8.57;;;;;;;1.20;62.58;100664.78;5007180;28;20228;-63
2022/01/24 06:54:47;;;;;;;10.43;8.33;;;;;;;1.36;62.44;100671.75;5006872;28;20236;-64
2022/01/24 06:57:15;;;;;;;11.57;7.90;;;;;;;1.59;61.38;100680.97;5007507;28;20721;-63
2022/01/24 06:59:43;;;;;;;12.50;8.27;;;;;;;1.65;61.47;100677.13;5006654;28;20235;-64
2022/01/24 07:02:12;;;;;;;10.43;7.80;;;;;;;1.73;61.07;100683.59;5007326;28;20243;-64
2022/01/24 07:04:41;;;;;;;10.37;8.43;;;;;;;1.56;61.00;100660.94;5006892;28;20652;-63
2022/01/24 07:07:11;;;;;;;14.23;8.93;;;;;;;0.78;62.27;100615.53;5006177;28;20279;-63
2022/01/24 07:09:38;;;;;;;11.73;8.93;;;;;;;1.13;63.05;100683.63;5007007;28;20247;-64
2022/01/24 07:12:07;;;;;;;11.43;8.50;;;;;;;1.52;61.86;100695.44;5007993;28;20585;-63
2022/01/24 07:14:34;;;;;;;14.87;9.47;;;;;;;1.29;62.54;100678.31;5006721;28;20881;-64
2022/01/24 07:17:11;;;;;;;13.50;9.33;;;;;;;1.09;62.94;100663.69;5007977;28;20233;-64
2022/01/24 07:19:38;;;;;;;12.60;9.77;;;;;;;1.04;63.12;100666.59;5018861;28;22509;-64
2022/01/24 07:22:05;;;;;;;12.80;8.80;;;;;;;1.00;63.56;100680.84;5022584;28;20243;-64
2022/01/24 07:24:33;;;;;;;14.40;8.90;;;;;;;0.88;63.58;100664.00;5029692;28;20232;-64
2022/01/24 07:27:02;;;;;;;15.30;9.50;;;;;;;1.76;61.22;100693.13;5026752;28;20221;-64
2022/01/24 07:29:29;;;;;;;12.37;9.53;;;;;;;1.59;61.75;100696.75;5018117;28;20763;-64
2022/01/24 07:31:56;;;;;;;13.97;10.53;;;;;;;1.30;62.46;100683.50;5017534;28;20247;-63
2022/01/24 07:34:23;;;;;;;19.67;11.87;;;;;;;0.86;63.76;100668.50;5009827;28;20239;-63
2022/01/24 07:36:51;;;;;;;17.70;12.73;;;;;;;1.15;63.16;100687.84;5010577;28;20807;-64
2022/01/24 07:39:19;;;;;;;14.83;10.93;;;;;;;1.17;62.99;100687.75;5010375;28;20237;-64
2022/01/24 07:41:47;;;;;;;12.87;9.73;;;;;;;0.89;63.92;100684.09;5011726;28;20229;-63
2022/01/24 07:44:16;;;;;;;13.27;10.17;;;;;;;0.73;64.55;100686.72;5010466;28;20237;-63
2022/01/24 07:46:43;;;;;;;13.03;9.20;;;;;;;1.17;63.58;100709.63;5010728;28;20240;-63
2022/01/24 07:49:11;;;;;;;12.17;9.70;;;;;;;1.04;63.63;100700.75;5009903;28;20232;-64
2022/01/24 07:51:40;;;;;;;12.60;9.43;;;;;;;1.17;63.41;100698.28;5009601;28;20255;-64
2022/01/24 07:54:08;;;;;;;11.43;9.17;;;;;;;0.81;64.69;100692.38;5010327;28;20226;-63
2022/01/24 07:56:36;;;;;;;12.97;10.30;;;;;;;1.04;64.58;100713.88;5010002;28;20231;-64
2022/01/24 07:59:03;;;;;;;15.13;10.57;;;;;;;1.33;63.31;100690.34;5009746;28;20522;-64
2022/01/24 08:01:31;;;;;;;12.80;9.47;;;;;;;1.32;63.43;100700.00;5010778;28;20242;-63
2022/01/24 08:03:59;;;;;;;13.57;10.40;;;;;;;1.11;64.39;100701.25;5010580;28;20229;-63
2022/01/24 08:06:26;;;;;;;13.17;10.07;;;;;;;1.49;63.17;100706.94;5009505;28;20609;-64
2022/01/24 08:08:53;;;;;;;12.10;10.20;;;;;;;1.32;63.44;100701.81;5009479;28;20233;-64
2022/01/24 08:11:22;;;;;;;14.63;10.90;;;;;;;1.59;63.28;100717.78;5012976;28;20224;-64
2022/01/24 08:13:49;;;;;;;13.07;10.33;;;;;;;1.24;64.56;100707.50;5014778;28;20232;-64
2022/01/24 08:16:17;;;;;;;14.57;11.90;;;;;;;1.49;63.57;100704.31;5010235;28;20236;-63
2022/01/24 08:18:44;;;;;;;16.83;11.53;;;;;;;0.99;65.64;100700.16;5001564;28;20243;-63
2022/01/24 08:21:11;;;;;;;14.17;10.80;;;;;;;1.36;64.69;100705.94;5010590;28;20227;-63
2022/01/24 08:23:38;;;;;;;15.20;10.33;;;;;;;1.46;63.34;100691.34;5009597;28;20241;-64
2022/01/24 08:26:05;;;;;;;13.53;10.67;;;;;;;1.55;63.95;100688.19;5010156;28;20610;-64
2022/01/24 08:28:32;;;;;;;14.53;10.33;;;;;;;1.72;64.06;100697.72;5008819;28;20234;-64
2022/01/24 08:30:59;;;;;;;11.67;10.17;;;;;;;2.05;63.64;100698.41;5009103;28;20221;-64
2022/01/24 08:33:27;;;;;;;13.80;11.30;;;;;;;1.73;64.26;100690.66;5011060;28;20231;-64
2022/01/24 08:35:54;;;;;;;14.00;10.87;;;;;;;1.82;63.50;100679.59;5008859;28;20233;-64
2022/01/24 08:38:21;;;;;;;14.53;10.47;;;;;;;1.92;63.72;100691.25;5009855;28;20611;-64
2022/01/24 08:40:52;;;;;;;14.87;10.67;;;;;;;2.55;62.25;100680.41;5009774;28;20242;-64
2022/01/24 08:43:38;;;;;;;11.33;9.27;;;;;;;2.29;63.44;100691.63;5007988;28;20233;-63
2022/01/24 08:46:06;;;;;;;15.17;11.30;;;;;;;2.19;63.40;100663.31;5003849;28;20265;-64
2022/01/24 08:48:34;;;;;;;13.67;10.33;;;;;;;2.45;63.12;100680.97;5009885;28;20247;-64
2022/01/24 08:51:02;;;;;;;14.30;11.40;;;;;;;2.33;63.55;100673.84;5009069;28;20248;-64
2022/01/24 08:53:31;;;;;;;14.23;11.57;;;;;;;2.39;63.77;100684.00;5011318;28;20227;-64
2022/01/24 08:56:00;;;;;;;13.20;10.53;;;;;;;2.74;62.38;100661.63;5009562;28;20239;-63
2022/01/24 08:58:28;;;;;;;14.03;11.00;;;;;;;2.95;63.03;100680.47;5008900;28;20234;-64
2022/01/24 09:00:55;;;;;;;12.43;10.00;;;;;;;2.40;64.13;100677.78;5008975;28;20253;-63
2022/01/24 09:03:22;;;;;;;12.60;10.10;;;;;;;2.71;63.22;100664.47;5019028;28;20257;-64
2022/01/24 09:05:52;;;;;;;11.03;9.77;;;;;;;2.77;63.53;100675.47;5021947;28;20236;-64
2022/01/24 09:08:20;;;;;;;15.13;10.13;;;;;;;3.18;61.03;100644.69;5027927;28;20256;-63
2022/01/24 09:10:47;;;;;;;12.97;9.67;;;;;;;3.10;61.40;100647.00;5009272;28;20309;-64
2022/01/24 09:13:15;;;;;;;11.80;9.70;;;;;;;2.56;62.67;100650.47;5008874;28;20226;-64
2022/01/24 09:15:42;;;;;;;13.43;10.13;;;;;;;2.82;62.62;100640.91;5008921;28;20225;-64
2022/01/24 09:18:09;;;;;;;12.20;9.50;;;;;;;3.27;61.63;100656.41;5008955;28;20243;-63
2022/01/24 09:20:38;;;;;;;14.07;9.83;;;;;;;3.20;61.94;100653.34;5009485;28;20224;-64
2022/01/24 09:23:07;;;;;;;12.73;9.63;;;;;;;3.35;61.59;100633.88;5008076;28;20238;-64
2022/01/24 09:25:34;;;;;;;11.60;9.37;;;;;;;1.94;64.24;100630.66;5008836;28;20278;-64
2022/01/24 09:28:02;;;;;;;12.20;9.20;;;;;;;3.07;62.04;100655.97;5009371;28;20227;-64
2022/01/24 09:30:30;;;;;;;11.70;10.13;;;;;;;3.05;62.64;100666.59;5007702;28;20231;-64
2022/01/24 09:32:57;;;;;;;11.67;9.07;;;;;;;2.93;62.17;100648.94;5008719;28;20756;-64
2022/01/24 09:35:27;;;;;;;12.40;9.70;;;;;;;3.43;60.97;100650.03;5009628;28;20229;-64
2022/01/24 09:37:54;;;;;;;12.00;9.50;;;;;;;3.36;61.55;100648.78;5008513;28;20262;-64
2022/01/24 09:40:22;;;;;;;11.03;9.33;;;;;;;2.93;62.12;100656.00;5008952;28;20239;-65
2022/01/24 09:42:49;;;;;;;10.97;9.13;;;;;;;2.30;64.02;100656.44;5006785;28;20248;-64
2022/01/24 09:45:17;;;;;;;12.97;9.50;;;;;;;3.11;62.47;100667.97;5008810;28;20233;-64
2022/01/24 09:47:45;;;;;;;13.27;9.80;;;;;;;1.83;64.59;100639.19;5008428;28;20237;-64
2022/01/24 09:50:14;;;;;;;12.83;10.23;;;;;;;2.85;62.72;100674.97;5008028;28;20230;-64
2022/01/24 09:52:44;;;;;;;11.53;9.63;;;;;;;2.77;63.13;100675.47;5008411;28;20618;-64
2022/01/24 09:55:12;;;;;;;12.70;9.70;;;;;;;2.52;62.40;100639.31;5006512;28;20228;-64
2022/01/24 09:57:41;;;;;;;14.13;9.83;;;;;;;2.26;64.52;100668.13;5008458;28;20233;-64
2022/01/24 10:00:12;;;;;;;12.57;9.77;;;;;;;3.22;62.10;100654.94;5008093;28;20240;-64
2022/01/24 10:02:40;;;;;;;14.27;10.00;;;;;;;3.98;60.49;100634.03;5010840;28;20229;-64
2022/01/24 10:05:30;;;;;;;11.57;9.13;;;;;;;2.99;62.58;100650.34;5006084;28;21053;-64
2022/01/24 10:08:18;;;;;;;15.00;10.07;;;;;;;3.25;61.91;100645.97;5008210;28;20225;-64
2022/01/24 10:10:47;;;;;;;11.53;9.90;;;;;;;3.74;60.96;100634.78;4999974;28;20248;-65
2022/01/24 10:16:35;;;;;;;11.70;9.50;;;;;;;3.61;62.01;100657.69;5002906;28;20229;-64
2022/01/24 10:19:06;;;;;;;12.73;9.17;;;;;;;2.96;61.97;100640.00;5007749;28;20650;-64
2022/01/24 10:21:56;;;;;;;11.57;9.97;;;;;;;3.30;61.14;100643.03;5007699;28;20251;-64
2022/01/24 10:24:26;;;;;;;12.33;9.83;;;;;;;3.76;60.02;100627.59;5005910;28;20227;-64
2022/01/24 10:27:15;;;;;;;14.43;11.50;;;;;;;2.54;62.47;100628.66;5008382;28;20244;-64
2022/01/24 10:29:45;;;;;;;14.53;10.17;;;;;;;2.67;62.37;100637.47;5007718;28;20225;-64
2022/01/24 10:32:31;;;;;;;13.30;9.23;;;;;;;3.57;61.99;100643.84;5008079;28;20234;-64
2022/01/24 10:35:21;;;;;;;10.63;9.50;;;;;;;4.35;60.40;100642.81;5007415;28;20766;-64
2022/01/24 10:37:50;;;;;;;13.50;9.53;;;;;;;3.97;61.49;100648.16;5007963;28;20315;-64
2022/01/24 10:40:46;;;;;;;13.03;9.70;;;;;;;4.48;59.11;100628.72;5008071;28;20232;-64
2022/01/24 10:43:17;;;;;;;11.93;9.27;;;;;;;3.90;60.50;100625.78;5007031;28;20794;-64
2022/01/24 10:45:46;;;;;;;11.30;9.50;;;;;;;3.86;61.67;100640.13;5007355;28;20232;-64
2022/01/24 10:48:13;;;;;;;12.10;9.50;;;;;;;3.86;60.29;100608.47;5007847;28;20729;-64
2022/01/24 10:50:40;;;;;;;15.17;9.57;;;;;;;3.78;60.51;100615.13;5007191;28;20229;-64
2022/01/24 10:53:15;;;;;;;12.30;9.63;;;;;;;4.71;58.64;100611.19;5006543;28;20666;-64
2022/01/24 10:55:47;;;;;;;17.13;10.20;;;;;;;4.17;59.90;100593.94;5007534;28;20229;-64
2022/01/24 10:58:18;;;;;;;13.03;10.03;;;;;;;4.22;60.09;100588.34;5007410;28;20229;-64
2022/01/24 11:04:01;;;;;;;12.03;10.53;;;;;;;2.85;62.96;100620.47;5057556;28;20574;-64
2022/01/24 11:06:30;;;;;;;12.30;9.47;;;;;;;3.77;60.89;100565.09;5042567;28;20231;-63
2022/01/24 11:09:22;;;;;;;10.93;9.83;;;;;;;3.21;62.52;100600.50;5044230;28;20781;-63
2022/01/24 11:11:52;;;;;;;12.13;9.93;;;;;;;3.35;62.00;100598.78;5031015;28;20227;-64
2022/01/24 11:14:21;;;;;;;11.93;9.93;;;;;;;2.76;62.27;100584.16;5023544;28;20270;-64
2022/01/24 11:16:49;;;;;;;11.07;9.17;;;;;;;2.43;62.84;100581.97;5016341;28;20221;-64
2022/01/24 11:21:53;;;;;;;13.27;10.00;;;;;;;3.59;59.78;100567.22;5024154;28;20228;-64
2022/01/24 11:24:26;;;;;;;11.93;9.70;;;;;;;4.24;59.21;100538.91;5022758;28;20571;-63
2022/01/24 11:26:54;;;;;;;11.77;9.60;;;;;;;3.70;60.74;100563.84;5023512;28;20228;-64
2022/01/24 11:29:22;;;;;;;11.80;9.03;;;;;;;2.50;62.71;100567.44;5023627;28;20314;-63
2022/01/24 11:31:58;;;;;;;14.17;10.00;;;;;;;3.06;61.52;100576.03;5024348;28;20251;-64
2022/01/24 11:34:36;;;;;;;14.63;10.23;;;;;;;4.27;59.09;100567.72;5023072;28;20467;-64
2022/01/24 11:37:04;;;;;;;14.53;11.00;;;;;;;3.73;60.58;100574.19;5023892;28;20227;-64
2022/01/24 11:39:32;;;;;;;12.50;9.93;;;;;;;3.47;61.60;100579.47;5022995;28;20228;-64
2022/01/24 11:41:59;;;;;;;13.40;10.00;;;;;;;4.22;59.45;100554.84;5023853;28;20232;-64
2022/01/24 11:44:45;;;;;;;12.23;10.43;;;;;;;4.08;59.50;100554.97;5021734;28;20835;-64
2022/01/24 11:47:22;;;;;;;10.50;8.93;;;;;;;3.89;60.12;100592.41;5023370;28;20229;-63
2022/01/24 11:49:53;;;;;;;12.30;9.40;;;;;;;4.09;59.77;100581.28;5023455;28;20225;-64
2022/01/24 11:52:32;;;;;;;12.40;9.70;;;;;;;3.40;60.49;100543.91;5023502;28;20228;-63
2022/01/24 11:57:42;;;;;;;13.67;9.97;;;;;;;4.44;58.49;100553.28;5023441;28;20227;-64
2022/01/24 12:00:09;;;;;;;11.90;10.63;;;;;;;5.03;56.71;100531.31;5023180;28;20713;-64
2022/01/24 12:03:01;;;;;;;12.37;10.87;;;;;;;4.36;58.48;100525.63;5016132;28;20237;-64
2022/01/24 12:05:53;;;;;;;12.10;10.27;;;;;;;3.64;60.43;100540.50;5023773;28;20259;-64
2022/01/24 12:08:42;;;;;;;12.80;9.77;;;;;;;4.15;59.15;100533.31;5022236;28;20844;-63
2022/01/24 12:11:15;;;;;;;11.07;9.17;;;;;;;3.96;59.14;100528.53;5022840;28;22103;-64
2022/01/24 12:13:46;;;;;;;11.23;8.47;;;;;;;3.11;59.96;100522.16;5018722;28;20307;-64
2022/01/24 12:16:15;;;;;;;13.13;9.77;;;;;;;4.18;59.44;100548.13;5010301;28;20240;-64
2022/01/24 12:18:44;;;;;;;12.13;9.07;;;;;;;3.65;59.87;100544.84;5010020;28;20243;-64
2022/01/24 12:21:14;;;;;;;11.37;9.53;;;;;;;3.51;60.44;100557.22;5010035;28;20587;-64
2022/01/24 12:23:51;;;;;;;12.87;9.80;;;;;;;3.40;60.48;100559.72;5009204;28;20732;-64
2022/01/24 12:26:49;;;;;;;13.50;9.30;;;;;;;3.58;60.41;100563.75;5009767;28;20232;-64
2022/01/24 12:29:27;;;;;;;11.27;9.33;;;;;;;3.66;58.89;100507.81;5009518;28;20769;-64
2022/01/24 12:31:58;;;;;;;13.97;9.37;;;;;;;3.86;60.83;100553.03;5002747;28;20229;-64
2022/01/24 12:34:27;;;;;;;11.07;8.83;;;;;;;5.00;57.02;100528.91;5009678;28;20229;-64
2022/01/24 12:37:02;;;;;;;11.30;9.57;;;;;;;4.43;58.84;100539.22;5008707;28;20231;-64
2022/01/24 12:39:34;;;;;;;11.63;9.07;;;;;;;5.39;56.14;100516.22;5009779;28;20232;-64
2022/01/24 12:42:14;;;;;;;10.73;8.50;;;;;;;3.74;59.75;100534.50;5009975;28;20229;-64
2022/01/24 12:47:13;;;;;;;12.37;9.60;;;;;;;3.53;60.44;100533.38;5008208;28;20916;-64
2022/01/24 12:49:41;;;;;;;12.43;9.57;;;;;;;5.36;56.78;100509.38;5008578;28;20243;-64
2022/01/24 12:52:11;;;;;;;11.87;9.80;;;;;;;4.64;57.05;100476.03;5008941;28;20217;-64
2022/01/24 12:54:41;;;;;;;10.97;9.33;;;;;;;5.00;58.01;100508.56;5008063;28;20233;-63
2022/01/24 12:57:11;;;;;;;10.83;8.93;;;;;;;5.10;56.65;100475.16;5008236;28;21759;-64
2022/01/24 12:59:38;;;;;;;13.07;10.00;;;;;;;5.56;56.13;100483.97;5008350;28;20248;-64
2022/01/24 13:02:08;;;;;;;11.63;9.77;;;;;;;5.58;55.63;100479.41;5009337;28;20232;-64
2022/01/24 13:04:39;;;;;;;11.77;9.43;;;;;;;4.93;57.28;100491.50;5008097;28;20225;-64
2022/01/24 13:07:08;;;;;;;10.13;9.07;;;;;;;4.89;58.28;100503.25;5009095;28;20225;-64
2022/01/24 13:09:36;;;;;;;11.60;8.90;;;;;;;3.79;58.92;100510.41;5006583;28;20740;-64
2022/01/24 13:12:08;;;;;;;11.87;9.87;;;;;;;4.94;57.23;100497.63;5009817;28;20721;-64
2022/01/24 13:23:00;;;;;;;12.53;9.53;;;;;;;4.10;59.29;100524.91;5008326;28;20572;-63
2022/01/24 13:25:30;;;;;;;12.90;9.03;;;;;;;4.01;59.09;100491.22;5007983;28;20237;-64
2022/01/24 13:28:19;;;;;;;13.13;9.20;;;;;;;5.02;56.79;100450.28;5008666;28;20229;-64
2022/01/24 13:31:02;;;;;;;11.37;9.00;;;;;;;4.26;59.62;100519.31;5008651;28;20240;-63